Terminal Aerodrome Forecast
Issued by NWS

Home | Current Version | Previous Version | Text Only | Print | Product List | Glossary On
Versions: 1 2 3 4 5 6 7 8 9 10 11 12 13 14 15 16 17 18 19
000
FTAK31 PAJN 220527
TAFAJN
TAF
PAJN 220527Z 2206/2306 08006KT P6SM -RA SCT010 OVC060
     FM220800 10008KT 4SM -RA BR BKN010 OVC035
      TEMPO 2211/2215 2SM -RA BR BKN005 OVC015
     FM222100 12010KT P6SM -RA SCT015 OVC025=

USA.gov is the U.S. government's official web portal to all federal, state and local government web resources and services.